createdAt,value
2022-07-29T00:02:20.894Z,1.88
2022-07-29T00:04:55.262Z,1.73
2022-07-29T00:07:29.356Z,1.60
2022-07-29T00:10:03.461Z,1.80
2022-07-29T00:12:37.691Z,1.88
2022-07-29T00:15:13.535Z,1.75
2022-07-29T00:17:47.824Z,1.58
2022-07-29T00:20:22.163Z,2.00
2022-07-29T00:22:59.161Z,1.77
2022-07-29T00:25:33.898Z,2.15
2022-07-29T00:28:08.032Z,1.75
2022-07-29T00:30:44.996Z,1.65
2022-07-29T00:33:19.205Z,1.65
2022-07-29T00:35:52.324Z,1.80
2022-07-29T00:38:27.578Z,1.90
2022-07-29T00:41:01.559Z,1.90
2022-07-29T00:43:35.696Z,1.65
2022-07-29T00:46:11.199Z,1.92
2022-07-29T00:48:45.329Z,1.60
2022-07-29T00:51:19.473Z,1.90
2022-07-29T00:53:53.945Z,1.73
2022-07-29T00:56:28.167Z,1.75
2022-07-29T00:59:02.494Z,1.73
2022-07-29T01:01:37.993Z,1.40
2022-07-29T01:04:12.196Z,1.83
2022-07-29T01:06:49.600Z,1.75
2022-07-29T01:09:42.831Z,1.60
2022-07-29T01:12:22.192Z,1.98
2022-07-29T01:14:57.406Z,1.73
2022-07-29T01:17:38.776Z,1.80
2022-07-29T01:20:20.243Z,1.85
2022-07-29T01:23:11.248Z,1.83
2022-07-29T01:26:06.379Z,2.03
2022-07-29T01:29:00.278Z,1.90
2022-07-29T01:31:53.837Z,1.80
2022-07-29T01:34:46.492Z,1.90
2022-07-29T01:37:24.823Z,1.83
2022-07-29T01:40:01.090Z,1.77
2022-07-29T01:42:38.974Z,2.40
2022-07-29T01:45:17.933Z,1.90
2022-07-29T01:48:01.477Z,1.90
2022-07-29T01:50:38.275Z,1.52
2022-07-29T01:53:15.115Z,1.95
2022-07-29T01:55:51.982Z,1.88
2022-07-29T01:58:27.272Z,2.10
2022-07-29T02:01:04.190Z,2.13
2022-07-29T02:03:39.889Z,1.60
2022-07-29T02:06:18.493Z,1.95
2022-07-29T02:08:55.159Z,2.47
2022-07-29T02:11:29.461Z,1.55
2022-07-29T02:14:04.221Z,1.60
2022-07-29T02:16:42.759Z,1.80
2022-07-29T02:19:19.754Z,1.67
2022-07-29T02:21:59.690Z,1.33
2022-07-29T02:24:33.847Z,1.90
2022-07-29T02:27:09.334Z,1.73
2022-07-29T02:29:44.118Z,1.77
2022-07-29T02:32:20.998Z,1.95
2022-07-29T02:34:55.766Z,1.38
2022-07-29T02:37:30.313Z,1.88
2022-07-29T02:40:05.517Z,1.58
2022-07-29T02:42:43.771Z,2.00
2022-07-29T02:45:17.828Z,1.30
2022-07-29T02:47:54.273Z,1.52
2022-07-29T02:50:35.184Z,1.85
2022-07-29T02:53:15.277Z,1.80
2022-07-29T02:55:54.479Z,1.67
2022-07-29T02:58:31.976Z,1.75
2022-07-29T03:01:11.522Z,1.63
2022-07-29T03:03:50.922Z,1.67
2022-07-29T03:06:37.614Z,1.42
2022-07-29T03:09:14.252Z,1.52
2022-07-29T03:11:50.712Z,1.80
2022-07-29T03:14:25.690Z,1.88
2022-07-29T03:17:00.758Z,1.70
2022-07-29T03:19:36.742Z,1.67
2022-07-29T03:22:11.891Z,2.00
2022-07-29T03:24:47.378Z,1.85
2022-07-29T03:27:21.614Z,2.17
2022-07-29T03:29:55.587Z,1.60
2022-07-29T03:32:30.390Z,1.88
2022-07-29T03:38:06.557Z,2.00
2022-07-29T03:40:44.975Z,1.98
2022-07-29T03:43:20.901Z,2.40
2022-07-29T03:45:57.351Z,2.00
2022-07-29T03:48:35.312Z,2.15
2022-07-29T03:51:11.015Z,1.80
2022-07-29T03:53:45.271Z,1.73
2022-07-29T03:56:22.448Z,1.60
2022-07-29T03:58:57.109Z,1.60
2022-07-29T04:01:32.061Z,2.08
2022-07-29T04:04:06.961Z,1.50
2022-07-29T04:06:44.081Z,1.60
2022-07-29T04:09:18.040Z,2.00
2022-07-29T04:12:01.335Z,1.77
2022-07-29T04:14:38.036Z,1.60
2022-07-29T04:17:12.059Z,1.77
2022-07-29T04:19:46.290Z,1.58
2022-07-29T04:22:21.747Z,2.03
2022-07-29T04:25:01.689Z,1.90
2022-07-29T04:27:57.783Z,2.20
2022-07-29T04:30:32.712Z,2.10
2022-07-29T04:33:09.237Z,1.92
2022-07-29T04:35:50.058Z,1.63
2022-07-29T04:38:26.338Z,1.90
2022-07-29T04:41:00.443Z,1.92
2022-07-29T04:43:36.928Z,2.30
2022-07-29T04:46:11.191Z,1.60
2022-07-29T04:48:47.530Z,2.13
2022-07-29T04:51:21.612Z,1.73
2022-07-29T04:53:57.003Z,1.90
2022-07-29T04:56:31.149Z,1.50
2022-07-29T04:59:05.262Z,1.75
2022-07-29T05:01:39.269Z,1.65
2022-07-29T05:04:13.649Z,2.15
2022-07-29T05:06:47.912Z,1.65
2022-07-29T05:09:23.427Z,2.25
2022-07-29T05:11:59.957Z,2.10
2022-07-29T05:14:34.055Z,2.08
2022-07-29T05:17:08.197Z,1.60
2022-07-29T05:19:42.393Z,1.92
2022-07-29T05:22:16.389Z,1.77
2022-07-29T05:24:51.801Z,2.08
2022-07-29T05:27:26.437Z,2.00
2022-07-29T05:30:00.463Z,1.80
2022-07-29T05:32:34.468Z,1.67
2022-07-29T05:35:09.437Z,1.58
2022-07-29T05:37:43.612Z,1.67
2022-07-29T05:40:19.088Z,2.28
2022-07-29T05:42:53.068Z,1.92
2022-07-29T05:45:27.138Z,1.88
2022-07-29T05:48:01.181Z,2.25
2022-07-29T05:50:35.274Z,1.90
2022-07-29T05:53:18.887Z,2.00
2022-07-29T05:55:55.824Z,2.10
2022-07-29T05:58:30.923Z,2.03
2022-07-29T06:01:05.635Z,1.50
2022-07-29T06:03:40.123Z,1.80
2022-07-29T06:06:14.477Z,1.80
2022-07-29T06:08:48.462Z,1.60
2022-07-29T06:11:23.932Z,1.50
2022-07-29T06:13:57.924Z,1.85
2022-07-29T06:16:32.008Z,1.65
2022-07-29T06:19:06.636Z,1.90
2022-07-29T06:21:44.725Z,1.80
2022-07-29T06:24:19.297Z,2.10
2022-07-29T06:26:55.286Z,1.90
2022-07-29T06:29:29.212Z,1.73
2022-07-29T06:32:03.473Z,1.58
2022-07-29T06:34:37.529Z,1.70
2022-07-29T06:37:15.487Z,1.95
2022-07-29T06:40:09.733Z,1.73
2022-07-29T06:42:46.885Z,1.73
2022-07-29T06:45:20.917Z,2.13
2022-07-29T06:47:55.644Z,1.80
2022-07-29T06:50:29.589Z,1.45
2022-07-29T06:53:03.648Z,1.70
2022-07-29T06:55:38.538Z,1.80
2022-07-29T06:58:15.384Z,2.05
2022-07-29T07:00:50.033Z,2.00
2022-07-29T07:03:24.964Z,1.90
2022-07-29T07:05:59.772Z,1.75
2022-07-29T07:08:34.643Z,2.53
2022-07-29T07:11:08.676Z,2.08
2022-07-29T07:13:43.989Z,2.20
2022-07-29T07:16:18.226Z,1.98
2022-07-29T07:18:52.386Z,2.15
2022-07-29T07:21:26.486Z,2.05
2022-07-29T07:24:04.358Z,2.20
2022-07-29T07:26:39.193Z,2.15
2022-07-29T07:29:14.642Z,2.20
2022-07-29T07:31:48.670Z,2.28
2022-07-29T07:34:29.438Z,2.20
2022-07-29T07:37:03.769Z,2.30
2022-07-29T07:39:37.948Z,2.20
2022-07-29T07:42:14.037Z,2.17
2022-07-29T07:45:12.205Z,1.90
2022-07-29T07:47:44.375Z,2.30
2022-07-29T07:50:19.447Z,1.95
2022-07-29T07:52:54.775Z,2.20
2022-07-29T07:55:28.883Z,2.03
2022-07-29T07:58:02.846Z,2.03
2022-07-29T08:00:38.450Z,2.10
2022-07-29T08:03:17.256Z,1.80
2022-07-29T08:05:52.174Z,2.30
2022-07-29T08:08:26.098Z,2.13
2022-07-29T08:11:02.272Z,2.00
2022-07-29T08:13:40.385Z,1.90
2022-07-29T08:16:16.685Z,2.28
2022-07-29T08:18:51.038Z,2.50
2022-07-29T08:21:27.014Z,2.05
2022-07-29T08:24:14.759Z,1.77
2022-07-29T08:26:48.793Z,2.00
2022-07-29T08:29:22.660Z,1.90
2022-07-29T08:31:58.131Z,1.92
2022-07-29T08:34:32.323Z,1.75
2022-07-29T08:37:06.244Z,1.63
2022-07-29T08:39:40.239Z,1.90
2022-07-29T08:42:14.493Z,2.10
2022-07-29T08:44:48.510Z,1.60
2022-07-29T08:47:24.278Z,1.77
2022-07-29T08:49:58.245Z,2.22
2022-07-29T08:52:38.249Z,2.08
2022-07-29T08:55:13.901Z,1.85
2022-07-29T08:57:51.977Z,2.10
2022-07-29T09:00:31.873Z,1.80
2022-07-29T09:03:08.561Z,1.63
2022-07-29T09:05:47.945Z,1.77
2022-07-29T09:08:22.833Z,1.90
2022-07-29T09:10:58.261Z,1.73
2022-07-29T09:13:33.120Z,1.67
2022-07-29T09:16:09.557Z,1.45
2022-07-29T09:18:46.396Z,1.88
2022-07-29T09:21:37.779Z,1.75
2022-07-29T09:24:13.540Z,2.00
2022-07-29T09:26:48.478Z,1.58
2022-07-29T09:29:24.231Z,2.42
2022-07-29T09:31:58.208Z,1.60
2022-07-29T09:34:33.665Z,1.80
2022-07-29T09:37:07.756Z,1.25
2022-07-29T09:39:47.229Z,1.50
2022-07-29T09:42:33.581Z,1.88
2022-07-29T09:45:08.442Z,1.65
2022-07-29T09:47:50.344Z,1.30
2022-07-29T09:50:36.725Z,1.67
2022-07-29T09:53:11.678Z,1.75
2022-07-29T09:55:51.819Z,1.75
2022-07-29T09:58:25.946Z,1.92
2022-07-29T10:01:00.298Z,1.60
2022-07-29T10:03:34.517Z,1.38
2022-07-29T10:06:11.969Z,1.70
2022-07-29T10:08:46.215Z,1.50
2022-07-29T10:11:21.293Z,1.75
2022-07-29T10:13:55.429Z,1.40
2022-07-29T10:16:33.960Z,1.55
2022-07-29T10:19:08.073Z,1.55
2022-07-29T10:21:45.232Z,1.42
2022-07-29T10:24:19.553Z,1.70
2022-07-29T10:26:54.284Z,1.58
2022-07-29T10:29:30.014Z,1.80
2022-07-29T10:32:19.766Z,1.75
2022-07-29T10:35:26.343Z,1.35
2022-07-29T10:38:29.942Z,1.45
2022-07-29T10:41:32.262Z,1.65
2022-07-29T10:44:17.220Z,1.80
2022-07-29T10:46:54.603Z,1.58
2022-07-29T10:49:31.250Z,1.70
2022-07-29T10:52:10.677Z,1.65
2022-07-29T10:54:53.868Z,1.60
2022-07-29T10:57:53.025Z,1.70
2022-07-29T11:00:34.716Z,1.77
2022-07-29T11:03:11.002Z,1.95
2022-07-29T11:05:56.466Z,1.90
2022-07-29T11:08:33.655Z,1.40
2022-07-29T11:11:44.163Z,1.70
2022-07-29T11:15:01.721Z,1.65
2022-07-29T11:18:15.276Z,1.95
2022-07-29T11:20:54.839Z,1.60
2022-07-29T11:23:33.969Z,1.63
2022-07-29T11:26:23.150Z,1.65
2022-07-29T11:29:03.361Z,1.77
2022-07-29T11:31:40.196Z,1.70
2022-07-29T11:34:22.776Z,1.27
2022-07-29T11:37:33.046Z,1.70
2022-07-29T11:40:21.481Z,1.85
2022-07-29T11:42:55.915Z,1.40
2022-07-29T11:45:48.437Z,1.60
2022-07-29T11:48:29.223Z,1.88
2022-07-29T11:54:07.913Z,1.80
2022-07-29T11:56:51.724Z,1.58
2022-07-29T11:59:33.568Z,1.50
2022-07-29T12:02:37.361Z,1.65
2022-07-29T12:05:10.554Z,1.52
2022-07-29T12:07:03.811Z,1.50
2022-07-29T12:07:47.195Z,1.40
2022-07-29T12:10:30.683Z,1.50
2022-07-29T12:13:05.455Z,1.40
2022-07-29T12:15:47.109Z,1.35
2022-07-29T12:18:24.026Z,1.40
2022-07-29T12:21:05.080Z,1.30
2022-07-29T12:23:39.380Z,1.80
2022-07-29T12:26:22.063Z,1.35
2022-07-29T12:28:59.886Z,1.42
2022-07-29T12:31:44.032Z,1.70
2022-07-29T12:34:20.887Z,1.33
2022-07-29T12:36:55.076Z,1.42
2022-07-29T12:39:29.310Z,1.20
2022-07-29T12:42:14.950Z,1.50
2022-07-29T12:44:51.078Z,1.52
2022-07-29T12:47:25.712Z,1.42
2022-07-29T12:50:15.682Z,1.40
2022-07-29T12:52:50.808Z,1.50
2022-07-29T12:55:49.993Z,1.40
2022-07-29T12:58:34.889Z,1.40
2022-07-29T13:01:17.128Z,1.58
2022-07-29T13:03:57.706Z,1.30
2022-07-29T13:06:37.764Z,1.55
2022-07-29T13:09:14.515Z,1.13
2022-07-29T13:11:50.539Z,1.50
2022-07-29T13:14:33.993Z,1.58
2022-07-29T13:17:10.939Z,1.57
2022-07-29T13:19:47.211Z,1.48
2022-07-29T13:22:24.820Z,1.63
2022-07-29T13:25:00.849Z,1.38
2022-07-29T13:27:37.492Z,1.30
2022-07-29T13:30:12.634Z,1.65
2022-07-29T13:32:47.238Z,1.50
2022-07-29T13:35:22.032Z,1.38
2022-07-29T13:37:57.725Z,1.50
2022-07-29T13:40:31.741Z,1.27
2022-07-29T13:43:05.868Z,1.58
2022-07-29T13:45:40.120Z,1.20
2022-07-29T13:48:14.299Z,1.30
2022-07-29T13:50:49.178Z,1.33
2022-07-29T13:53:27.150Z,1.40
2022-07-29T13:56:01.419Z,1.25
2022-07-29T13:58:35.672Z,1.10
2022-07-29T14:01:10.124Z,1.60
2022-07-29T14:03:45.693Z,1.50
2022-07-29T14:06:22.268Z,1.30
2022-07-29T14:08:58.072Z,1.27
2022-07-29T14:11:32.072Z,1.70
2022-07-29T14:14:06.069Z,1.20
2022-07-29T14:16:43.781Z,1.58
2022-07-29T14:19:23.004Z,1.38
2022-07-29T14:21:57.020Z,1.45
2022-07-29T14:24:33.746Z,1.42
2022-07-29T14:27:11.189Z,1.38
2022-07-29T14:29:45.151Z,1.35
2022-07-29T14:32:19.294Z,1.73
2022-07-29T14:34:53.422Z,1.60
2022-07-29T14:37:27.456Z,1.15
2022-07-29T14:40:04.547Z,1.58
2022-07-29T14:42:38.711Z,1.40
2022-07-29T14:45:13.089Z,1.48
2022-07-29T14:47:47.196Z,1.50
2022-07-29T14:50:29.893Z,1.27
2022-07-29T14:53:06.217Z,1.10
2022-07-29T14:55:43.071Z,1.20
2022-07-29T14:58:17.024Z,1.27
2022-07-29T15:00:51.067Z,1.38
2022-07-29T15:03:25.621Z,1.30
2022-07-29T15:05:59.851Z,1.35
2022-07-29T15:08:33.863Z,1.10
2022-07-29T15:11:09.345Z,1.27
2022-07-29T15:13:43.311Z,1.30
2022-07-29T15:16:17.739Z,1.20
2022-07-29T15:18:52.350Z,1.48
2022-07-29T15:21:26.292Z,1.08
2022-07-29T15:24:00.224Z,1.00
2022-07-29T15:26:35.650Z,1.30
2022-07-29T15:29:09.509Z,1.08
2022-07-29T15:31:43.794Z,1.13
2022-07-29T15:34:17.838Z,1.17
2022-07-29T15:36:53.545Z,1.30
2022-07-29T15:39:27.895Z,1.35
2022-07-29T15:42:04.642Z,1.33
2022-07-29T15:44:38.620Z,1.35
2022-07-29T15:47:12.555Z,1.20
2022-07-29T15:49:49.364Z,1.35
2022-07-29T15:52:25.048Z,1.20
2022-07-29T15:54:59.740Z,1.30
2022-07-29T15:57:35.503Z,1.33
2022-07-29T16:00:10.704Z,1.27
2022-07-29T16:02:44.596Z,1.15
2022-07-29T16:05:18.605Z,1.25
2022-07-29T16:07:52.568Z,1.40
2022-07-29T16:10:26.629Z,1.30
2022-07-29T16:13:02.199Z,1.27
2022-07-29T16:15:36.265Z,1.20
2022-07-29T16:18:10.365Z,1.20
2022-07-29T16:20:44.541Z,1.52
2022-07-29T16:23:18.546Z,1.50
2022-07-29T16:26:01.078Z,1.20
2022-07-29T16:28:37.008Z,1.48
2022-07-29T16:31:11.182Z,1.15
2022-07-29T16:33:55.248Z,1.27
2022-07-29T16:36:29.893Z,1.48
2022-07-29T16:39:05.802Z,1.10
2022-07-29T16:41:39.803Z,1.40
2022-07-29T16:44:16.104Z,1.33
2022-07-29T16:46:50.043Z,1.30
2022-07-29T16:49:24.247Z,1.20
2022-07-29T16:51:58.212Z,1.45
2022-07-29T16:54:33.438Z,1.17
2022-07-29T16:57:07.441Z,1.23
2022-07-29T16:59:43.909Z,1.15
2022-07-29T17:02:18.192Z,1.35
2022-07-29T17:04:52.204Z,1.58
2022-07-29T17:07:26.145Z,1.33
2022-07-29T17:10:03.757Z,1.23
2022-07-29T17:12:39.730Z,1.38
2022-07-29T17:15:16.914Z,1.15
2022-07-29T17:17:55.390Z,1.17
2022-07-29T17:20:33.224Z,1.10
2022-07-29T17:23:07.486Z,1.20
2022-07-29T17:25:41.434Z,1.40
2022-07-29T17:28:15.398Z,1.27
2022-07-29T17:30:50.726Z,1.55
2022-07-29T17:33:24.690Z,1.10
2022-07-29T17:36:16.268Z,1.10
2022-07-29T17:38:50.262Z,0.95
2022-07-29T17:41:25.633Z,1.30
2022-07-29T17:44:02.029Z,1.20
2022-07-29T17:46:37.864Z,1.10
2022-07-29T17:49:11.960Z,1.27
2022-07-29T17:51:46.177Z,1.10
2022-07-29T17:54:20.549Z,1.20
2022-07-29T17:56:54.487Z,1.05
2022-07-29T17:59:28.521Z,1.20
2022-07-29T18:02:04.000Z,1.30
2022-07-29T18:04:38.005Z,1.52
2022-07-29T18:07:12.037Z,1.33
2022-07-29T18:09:45.967Z,1.45
2022-07-29T18:12:19.911Z,1.15
2022-07-29T18:14:53.906Z,1.10
2022-07-29T18:17:52.956Z,0.90
2022-07-29T18:20:23.444Z,1.05
2022-07-29T18:22:57.368Z,1.38
2022-07-29T18:25:31.547Z,1.27
2022-07-29T18:28:06.158Z,1.13
2022-07-29T18:30:40.172Z,1.17
2022-07-29T18:33:22.203Z,1.08
2022-07-29T18:36:10.480Z,1.20
2022-07-29T18:38:45.796Z,1.08
2022-07-29T18:41:19.777Z,1.15
2022-07-29T18:43:53.818Z,1.42
2022-07-29T18:46:28.830Z,1.25
2022-07-29T18:49:04.755Z,1.05
2022-07-29T18:51:38.816Z,1.50
2022-07-29T18:54:12.859Z,1.13
2022-07-29T18:56:47.866Z,1.40
2022-07-29T18:59:22.061Z,1.48
2022-07-29T19:01:56.245Z,1.30
2022-07-29T19:04:32.004Z,1.40
2022-07-29T19:07:06.370Z,1.13
2022-07-29T19:09:49.246Z,1.10
2022-07-29T19:12:23.794Z,1.25
2022-07-29T19:14:57.759Z,0.70
2022-07-29T19:17:31.823Z,1.00
2022-07-29T19:20:08.866Z,0.95
2022-07-29T19:22:42.945Z,1.10
2022-07-29T19:25:16.981Z,1.10
2022-07-29T19:27:51.384Z,1.08
2022-07-29T19:30:25.479Z,1.25
2022-07-29T19:32:59.614Z,1.00
2022-07-29T19:35:35.371Z,1.15
2022-07-29T19:38:09.477Z,1.15
2022-07-29T19:40:43.816Z,1.30
2022-07-29T19:43:51.084Z,1.25
2022-07-29T19:46:12.082Z,1.27
2022-07-29T19:48:46.437Z,1.25
2022-07-29T19:51:22.749Z,1.20
2022-07-29T19:53:56.971Z,1.30
2022-07-29T19:56:32.307Z,1.45
2022-07-29T19:59:07.362Z,1.20
2022-07-29T20:01:41.648Z,1.17
2022-07-29T20:04:15.766Z,1.17
2022-07-29T20:06:53.416Z,1.58
2022-07-29T20:09:28.941Z,1.30
2022-07-29T20:12:04.798Z,1.27
2022-07-29T20:14:39.525Z,1.00
2022-07-29T20:17:13.590Z,1.10
2022-07-29T20:19:47.773Z,1.15
2022-07-29T20:22:23.266Z,1.10
2022-07-29T20:24:57.464Z,1.30
2022-07-29T20:27:31.490Z,1.00
2022-07-29T20:30:07.085Z,1.23
2022-07-29T20:32:42.244Z,1.25
2022-07-29T20:35:16.346Z,1.00
2022-07-29T20:40:54.584Z,1.25
2022-07-29T20:43:28.813Z,1.08
2022-07-29T20:46:02.916Z,1.48
2022-07-29T20:48:37.036Z,1.10
2022-07-29T20:51:11.233Z,1.08
2022-07-29T20:53:47.081Z,1.20
2022-07-29T20:56:21.088Z,1.17
2022-07-29T20:58:55.433Z,1.27
2022-07-29T21:01:29.558Z,1.00
2022-07-29T21:04:03.676Z,1.08
2022-07-29T21:06:37.768Z,0.93
2022-07-29T21:09:13.304Z,1.33
2022-07-29T21:11:47.428Z,1.33
2022-07-29T21:14:38.792Z,1.15
2022-07-29T21:17:12.939Z,1.40
2022-07-29T21:19:47.376Z,1.13
2022-07-29T21:22:22.421Z,1.30
2022-07-29T21:24:58.378Z,1.00
2022-07-29T21:27:49.780Z,1.17
2022-07-29T21:30:24.337Z,1.30
2022-07-29T21:32:58.793Z,1.30
2022-07-29T21:36:10.255Z,1.00
2022-07-29T21:41:03.682Z,1.33
2022-07-29T21:43:37.806Z,1.20
2022-07-29T21:46:18.302Z,0.98
2022-07-29T21:48:55.405Z,1.00
2022-07-29T21:51:29.538Z,1.20
2022-07-29T21:54:04.351Z,1.30
2022-07-29T21:56:39.775Z,1.25
2022-07-29T21:59:13.735Z,1.15
2022-07-29T22:01:47.820Z,1.40
2022-07-29T22:04:21.962Z,1.35
2022-07-29T22:06:56.045Z,1.10
2022-07-29T22:09:30.238Z,1.20
2022-07-29T22:12:06.198Z,1.33
2022-07-29T22:14:40.212Z,0.90
2022-07-29T22:17:14.319Z,1.17
2022-07-29T22:19:48.483Z,1.02
2022-07-29T22:22:23.156Z,1.05
2022-07-29T22:24:57.386Z,1.10
2022-07-29T22:27:32.897Z,1.50
2022-07-29T22:30:08.222Z,1.35
2022-07-29T22:32:42.732Z,1.25
2022-07-29T22:35:16.856Z,1.20
2022-07-29T22:37:51.339Z,1.23
2022-07-29T22:40:30.534Z,1.30
2022-07-29T22:43:06.455Z,1.33
2022-07-29T22:45:40.471Z,1.20
2022-07-29T22:48:14.405Z,0.88
2022-07-29T22:50:48.356Z,1.10
2022-07-29T22:53:24.579Z,0.98
2022-07-29T22:56:03.392Z,1.20
2022-07-29T22:58:38.811Z,1.13
2022-07-29T23:01:12.881Z,1.15
2022-07-29T23:03:51.409Z,1.23
2022-07-29T23:06:25.625Z,1.10
2022-07-29T23:08:59.663Z,1.10
2022-07-29T23:11:33.637Z,0.80
2022-07-29T23:14:09.499Z,1.20
2022-07-29T23:16:46.627Z,1.17
2022-07-29T23:19:20.853Z,0.93
2022-07-29T23:21:54.949Z,1.02
2022-07-29T23:24:29.243Z,1.10
2022-07-29T23:27:06.231Z,1.00
2022-07-29T23:29:43.730Z,1.10
2022-07-29T23:32:18.161Z,0.95
2022-07-29T23:34:52.690Z,1.30
2022-07-29T23:37:26.996Z,1.50
2022-07-29T23:40:01.412Z,1.05
2022-07-29T23:42:35.486Z,0.95
2022-07-29T23:45:12.049Z,0.80
2022-07-29T23:47:46.165Z,1.23
2022-07-29T23:50:23.003Z,1.20
2022-07-29T23:52:57.161Z,1.00
2022-07-29T23:55:37.998Z,1.13
2022-07-29T23:58:12.988Z,0.95
